createdAt,value
2023-01-09T00:00:44.982Z,100.00
2023-01-09T00:05:46.672Z,100.00
2023-01-09T00:10:49.994Z,100.00
2023-01-09T00:15:51.689Z,100.00
2023-01-09T00:20:54.395Z,100.00
2023-01-09T00:26:13.901Z,100.00
2023-01-09T00:31:16.087Z,100.00
2023-01-09T00:36:17.707Z,100.00
2023-01-09T00:41:36.002Z,100.00
2023-01-09T00:46:41.754Z,100.00
2023-01-09T00:51:43.469Z,100.00
2023-01-09T00:56:45.839Z,100.00
2023-01-09T01:01:47.686Z,100.00
2023-01-09T01:07:07.997Z,100.00
2023-01-09T01:12:09.639Z,100.00
2023-01-09T01:17:11.304Z,100.00
2023-01-09T01:22:13.061Z,100.00
2023-01-09T01:27:14.689Z,100.00
2023-01-09T01:32:16.308Z,100.00
2023-01-09T01:37:17.972Z,100.00
2023-01-09T01:42:19.675Z,100.00
2023-01-09T01:47:23.664Z,100.00
2023-01-09T01:52:26.367Z,100.00
2023-01-09T01:57:28.140Z,100.00
2023-01-09T02:02:31.996Z,100.00
2023-01-09T02:07:35.006Z,100.00
2023-01-09T02:12:36.610Z,100.00
2023-01-09T02:18:01.476Z,100.00
2023-01-09T02:23:39.887Z,100.00
2023-01-09T02:29:05.842Z,100.00
2023-01-09T02:34:14.181Z,100.00
2023-01-09T02:39:18.627Z,100.00
2023-01-09T02:44:27.914Z,100.00
2023-01-09T02:49:29.909Z,100.00
2023-01-09T02:54:37.483Z,100.00
2023-01-09T02:59:54.171Z,100.00
2023-01-09T03:05:28.855Z,100.00
2023-01-09T03:10:42.446Z,100.00
2023-01-09T03:15:50.710Z,100.00
2023-01-09T03:20:54.133Z,100.00
2023-01-09T03:25:55.724Z,100.00
2023-01-09T03:30:57.311Z,100.00
2023-01-09T03:35:58.945Z,100.00
2023-01-09T03:41:00.560Z,100.00
2023-01-09T03:46:03.004Z,100.00
2023-01-09T03:51:04.664Z,100.00
2023-01-09T03:56:06.613Z,100.00
2023-01-09T04:01:14.303Z,100.00
2023-01-09T04:06:15.966Z,100.00
2023-01-09T04:11:18.262Z,100.00
2023-01-09T04:16:19.963Z,100.00
2023-01-09T04:21:21.652Z,100.00
2023-01-09T04:26:23.414Z,100.00
2023-01-09T04:31:25.027Z,100.00
2023-01-09T04:36:26.717Z,100.00
2023-01-09T04:41:46.688Z,100.00
2023-01-09T04:46:48.811Z,100.00
2023-01-09T04:51:50.617Z,100.00
2023-01-09T04:56:52.212Z,100.00
2023-01-09T05:01:55.784Z,100.00
2023-01-09T05:06:57.504Z,100.00
2023-01-09T05:12:01.588Z,100.00
2023-01-09T05:17:03.584Z,100.00
2023-01-09T05:22:05.342Z,100.00
2023-01-09T05:27:07.084Z,100.00
2023-01-09T05:32:08.732Z,100.00
2023-01-09T05:37:10.372Z,100.00
2023-01-09T05:42:11.972Z,100.00
2023-01-09T05:47:13.628Z,100.00
2023-01-09T05:52:15.268Z,100.00
2023-01-09T05:57:17.176Z,100.00
2023-01-09T06:02:18.858Z,100.00
2023-01-09T06:07:23.281Z,100.00
2023-01-09T06:12:25.039Z,100.00
2023-01-09T06:17:26.674Z,100.00
2023-01-09T06:22:28.277Z,100.00
2023-01-09T06:27:30.017Z,100.00
2023-01-09T06:32:31.902Z,100.00
2023-01-09T06:37:33.589Z,100.00
2023-01-09T06:42:35.189Z,100.00
2023-01-09T06:47:36.787Z,94.11
2023-01-09T06:52:38.940Z,94.96
2023-01-09T06:57:40.557Z,92.37
2023-01-09T07:02:42.241Z,92.83
2023-01-09T07:07:43.894Z,91.64
2023-01-09T07:12:45.538Z,93.83
2023-01-09T07:17:47.186Z,95.53
2023-01-09T07:22:48.807Z,97.00
2023-01-09T07:27:50.472Z,97.89
2023-01-09T07:32:53.372Z,99.56
2023-01-09T07:37:54.986Z,100.00
2023-01-09T07:42:56.652Z,100.00
2023-01-09T07:47:58.287Z,100.00
2023-01-09T07:53:00.132Z,100.00
2023-01-09T07:58:01.809Z,100.00
2023-01-09T08:03:03.468Z,100.00
2023-01-09T08:08:05.358Z,100.00
2023-01-09T08:13:07.007Z,92.70
2023-01-09T08:18:08.856Z,89.76
2023-01-09T08:23:10.439Z,88.30
2023-01-09T08:28:12.682Z,87.57
2023-01-09T08:33:14.363Z,87.98
2023-01-09T08:38:16.050Z,87.02
2023-01-09T08:43:36.371Z,87.28
2023-01-09T08:48:37.986Z,87.14
2023-01-09T08:53:39.621Z,86.77
2023-01-09T08:58:41.221Z,86.62
2023-01-09T09:03:42.847Z,86.67
2023-01-09T09:08:44.487Z,86.47
2023-01-09T09:13:46.148Z,86.82
2023-01-09T09:18:47.733Z,86.69
2023-01-09T09:23:49.380Z,86.73
2023-01-09T09:28:50.970Z,88.80
2023-01-09T09:33:52.545Z,88.72
2023-01-09T09:38:54.141Z,87.75
2023-01-09T09:44:23.967Z,86.63
2023-01-09T09:49:40.323Z,86.23
2023-01-09T09:54:47.315Z,86.94
2023-01-09T09:59:51.511Z,86.54
2023-01-09T10:05:07.619Z,86.67
2023-01-09T10:10:38.138Z,87.20
2023-01-09T10:15:49.752Z,87.00
2023-01-09T10:21:10.531Z,87.30
2023-01-09T10:26:22.035Z,87.23
2023-01-09T10:31:48.784Z,87.72
2023-01-09T10:37:08.796Z,89.32
2023-01-09T10:42:55.672Z,92.94
2023-01-09T10:48:11.401Z,100.00
2023-01-09T10:53:21.375Z,100.00
2023-01-09T10:58:23.325Z,95.79
2023-01-09T11:03:28.010Z,93.41
2023-01-09T11:08:43.028Z,90.86
2023-01-09T11:13:48.591Z,90.88
2023-01-09T11:18:54.357Z,88.40
2023-01-09T11:23:56.656Z,88.09
2023-01-09T11:29:12.065Z,87.25
2023-01-09T11:34:18.872Z,85.51
2023-01-09T11:39:27.314Z,86.01
2023-01-09T11:44:31.911Z,84.41
2023-01-09T11:49:33.536Z,83.39
2023-01-09T11:54:38.314Z,81.07
2023-01-09T11:59:40.034Z,74.84
2023-01-09T12:05:17.438Z,70.87
2023-01-09T12:10:42.874Z,71.31
2023-01-09T12:16:11.509Z,74.62
2023-01-09T12:21:43.765Z,74.05
2023-01-09T12:27:21.486Z,69.72
2023-01-09T12:32:25.869Z,64.76
2023-01-09T12:37:33.209Z,66.03
2023-01-09T12:42:46.665Z,70.85
2023-01-09T12:47:50.180Z,75.75
2023-01-09T12:53:27.276Z,78.67
2023-01-09T12:58:40.448Z,77.46
2023-01-09T13:04:09.683Z,74.80
2023-01-09T13:09:29.404Z,73.92
2023-01-09T13:14:51.336Z,73.89
2023-01-09T13:19:54.196Z,75.39
2023-01-09T13:25:17.806Z,76.82
2023-01-09T13:30:45.096Z,77.26
2023-01-09T13:35:52.487Z,77.42
2023-01-09T13:41:30.455Z,77.01
2023-01-09T13:46:39.187Z,77.50
2023-01-09T13:51:43.504Z,78.09
2023-01-09T13:57:17.101Z,79.67
2023-01-09T14:02:34.072Z,80.03
2023-01-09T14:07:37.812Z,79.72
2023-01-09T14:12:41.887Z,79.16
2023-01-09T14:17:43.647Z,79.80
2023-01-09T14:22:56.050Z,78.73
2023-01-09T14:28:09.012Z,78.44
2023-01-09T14:33:19.891Z,79.11
2023-01-09T14:38:41.807Z,80.39
2023-01-09T14:44:03.468Z,80.62
2023-01-09T14:49:39.391Z,80.70
2023-01-09T14:54:44.061Z,81.67
2023-01-09T14:59:58.880Z,81.53
2023-01-09T15:05:09.565Z,82.02
2023-01-09T15:10:19.658Z,82.26
2023-01-09T15:15:22.542Z,81.00
2023-01-09T15:20:27.395Z,81.34
2023-01-09T15:25:40.005Z,82.07
2023-01-09T15:30:43.423Z,82.15
2023-01-09T15:35:49.588Z,81.00
2023-01-09T15:41:13.663Z,82.57
2023-01-09T15:46:16.213Z,83.13
2023-01-09T15:51:18.571Z,84.00
2023-01-09T15:56:25.645Z,85.33
2023-01-09T16:01:40.589Z,84.62
2023-01-09T16:06:52.664Z,84.98
2023-01-09T16:11:58.008Z,84.97
2023-01-09T16:17:02.311Z,84.31
2023-01-09T16:22:04.233Z,84.46
2023-01-09T16:27:34.948Z,84.30
2023-01-09T16:32:47.496Z,85.27
2023-01-09T16:37:49.099Z,85.15
2023-01-09T16:43:05.582Z,85.93
2023-01-09T16:48:13.965Z,88.23
2023-01-09T16:53:16.971Z,89.95
2023-01-09T16:58:25.528Z,91.71
2023-01-09T17:03:27.170Z,91.12
2023-01-09T17:08:31.672Z,88.19
2023-01-09T17:13:33.364Z,88.46
2023-01-09T17:18:34.954Z,86.75
2023-01-09T17:23:36.541Z,85.83
2023-01-09T17:28:39.251Z,86.53
2023-01-09T17:33:41.130Z,86.15
2023-01-09T17:38:42.733Z,86.91
2023-01-09T17:43:46.690Z,87.69
2023-01-09T17:48:48.780Z,86.27
2023-01-09T17:53:50.920Z,85.94
2023-01-09T17:58:52.940Z,86.82
2023-01-09T18:03:54.673Z,87.07
2023-01-09T18:08:58.201Z,88.27
2023-01-09T18:14:00.114Z,88.08
2023-01-09T18:19:02.331Z,89.10
2023-01-09T18:24:04.143Z,88.57
2023-01-09T18:29:05.735Z,89.21
2023-01-09T18:34:09.292Z,89.26
2023-01-09T18:39:11.804Z,89.50
2023-01-09T18:44:13.511Z,89.29
2023-01-09T18:49:15.124Z,89.51
2023-01-09T18:54:16.809Z,89.62
2023-01-09T18:59:18.418Z,89.44
2023-01-09T19:04:20.189Z,90.67
2023-01-09T19:09:21.814Z,90.59
2023-01-09T19:14:23.406Z,90.26
2023-01-09T19:19:25.748Z,89.45
2023-01-09T19:24:27.449Z,89.62
2023-01-09T19:29:29.658Z,87.60
2023-01-09T19:34:31.351Z,86.21
2023-01-09T19:39:32.942Z,85.91
2023-01-09T19:44:34.896Z,86.19
2023-01-09T19:49:36.821Z,86.45
2023-01-09T19:54:39.231Z,85.87
2023-01-09T19:59:40.851Z,86.48
2023-01-09T20:04:42.457Z,86.54
2023-01-09T20:09:44.154Z,86.16
2023-01-09T20:14:45.926Z,85.60
2023-01-09T20:19:47.523Z,84.75
2023-01-09T20:24:49.165Z,84.71
2023-01-09T20:29:50.795Z,84.49
2023-01-09T20:34:52.440Z,84.70
2023-01-09T20:39:54.089Z,84.83
2023-01-09T20:44:57.151Z,83.87
2023-01-09T20:49:58.742Z,83.81
2023-01-09T20:55:00.397Z,84.55
2023-01-09T21:00:02.218Z,83.45
2023-01-09T21:05:04.189Z,84.33
2023-01-09T21:10:06.253Z,84.94
2023-01-09T21:15:11.497Z,84.94
2023-01-09T21:20:15.044Z,85.60
2023-01-09T21:25:16.790Z,85.63
2023-01-09T21:30:18.518Z,85.95
2023-01-09T21:35:20.133Z,85.91
2023-01-09T21:40:21.766Z,85.77
2023-01-09T21:45:42.230Z,85.47
2023-01-09T21:50:43.883Z,85.34
2023-01-09T21:55:45.475Z,85.50
2023-01-09T22:00:47.113Z,85.85
2023-01-09T22:05:48.741Z,86.18
2023-01-09T22:10:58.589Z,86.61
2023-01-09T22:16:08.710Z,86.07
2023-01-09T22:21:10.388Z,85.31
2023-01-09T22:26:15.246Z,86.11
2023-01-09T22:31:22.065Z,86.91
2023-01-09T22:36:25.064Z,87.21
2023-01-09T22:41:29.755Z,87.77
2023-01-09T22:46:32.597Z,88.07
2023-01-09T22:51:34.320Z,88.52
2023-01-09T22:56:36.307Z,88.82
2023-01-09T23:01:37.987Z,88.63
2023-01-09T23:06:39.663Z,89.08
2023-01-09T23:11:59.755Z,88.58
2023-01-09T23:17:02.633Z,88.00
2023-01-09T23:22:04.852Z,88.05
2023-01-09T23:27:07.563Z,87.69
2023-01-09T23:32:09.171Z,87.90
2023-01-09T23:37:10.885Z,88.04
2023-01-09T23:42:31.052Z,87.59
2023-01-09T23:47:32.644Z,88.21
2023-01-09T23:52:34.234Z,87.93
2023-01-09T23:57:35.834Z,88.11
